sensor_id;sensor_type;location;lat;lon;timestamp;pressure;altitude;pressure_sealevel;temperature;humidity
19236;BME280;9752;54.270;12.470;2023-02-28T00:04:14;103457.47;;;-0.85;100.00
19236;BME280;9752;54.270;12.470;2023-02-28T00:09:15;103449.59;;;-0.98;100.00
19236;BME280;9752;54.270;12.470;2023-02-28T00:14:17;103449.16;;;-1.12;100.00
19236;BME280;9752;54.270;12.470;2023-02-28T00:19:20;103458.94;;;-1.27;100.00
19236;BME280;9752;54.270;12.470;2023-02-28T00:24:22;103450.13;;;-1.40;100.00
19236;BME280;9752;54.270;12.470;2023-02-28T00:29:23;103457.78;;;-1.40;100.00
19236;BME280;9752;54.270;12.470;2023-02-28T00:34:27;103456.16;;;-1.34;100.00
19236;BME280;9752;54.270;12.470;2023-02-28T00:39:28;103455.00;;;-1.42;100.00
19236;BME280;9752;54.270;12.470;2023-02-28T00:44:31;103464.69;;;-1.45;100.00
19236;BME280;9752;54.270;12.470;2023-02-28T00:49:33;103463.09;;;-1.72;100.00
19236;BME280;9752;54.270;12.470;2023-02-28T00:54:36;103467.66;;;-1.98;100.00
19236;BME280;9752;54.270;12.470;2023-02-28T00:59:38;103465.31;;;-2.13;100.00
19236;BME280;9752;54.270;12.470;2023-02-28T01:04:42;103466.38;;;-2.40;100.00
19236;BME280;9752;54.270;12.470;2023-02-28T01:09:43;103461.84;;;-2.75;100.00
19236;BME280;9752;54.270;12.470;2023-02-28T01:14:46;103473.25;;;-2.99;100.00
19236;BME280;9752;54.270;12.470;2023-02-28T01:19:49;103474.88;;;-3.26;100.00
19236;BME280;9752;54.270;12.470;2023-02-28T01:24:51;103474.19;;;-3.31;100.00
19236;BME280;9752;54.270;12.470;2023-02-28T01:29:53;103489.31;;;-3.42;100.00
19236;BME280;9752;54.270;12.470;2023-02-28T01:34:56;103479.75;;;-3.55;100.00
19236;BME280;9752;54.270;12.470;2023-02-28T01:39:57;103496.81;;;-3.54;100.00
19236;BME280;9752;54.270;12.470;2023-02-28T01:45:04;103490.28;;;-3.63;100.00
19236;BME280;9752;54.270;12.470;2023-02-28T01:50:12;103489.50;;;-3.73;100.00
19236;BME280;9752;54.270;12.470;2023-02-28T01:55:18;103489.69;;;-3.77;100.00
19236;BME280;9752;54.270;12.470;2023-02-28T02:00:24;103489.06;;;-3.70;100.00
19236;BME280;9752;54.270;12.470;2023-02-28T02:05:30;103497.72;;;-3.80;100.00
19236;BME280;9752;54.270;12.470;2023-02-28T02:10:34;103494.09;;;-3.97;100.00
19236;BME280;9752;54.270;12.470;2023-02-28T02:15:40;103487.13;;;-4.04;100.00
19236;BME280;9752;54.270;12.470;2023-02-28T02:21:03;103497.91;;;-4.05;100.00
19236;BME280;9752;54.270;12.470;2023-02-28T02:26:27;103497.19;;;-4.09;100.00
19236;BME280;9752;54.270;12.470;2023-02-28T02:32:06;103496.75;;;-4.28;100.00
19236;BME280;9752;54.270;12.470;2023-02-28T02:37:17;103508.53;;;-4.44;100.00
19236;BME280;9752;54.270;12.470;2023-02-28T02:42:28;103500.09;;;-4.54;100.00
19236;BME280;9752;54.270;12.470;2023-02-28T02:47:33;103510.28;;;-4.48;100.00
19236;BME280;9752;54.270;12.470;2023-02-28T02:52:40;103516.47;;;-4.52;100.00
19236;BME280;9752;54.270;12.470;2023-02-28T02:57:46;103523.63;;;-4.34;100.00
19236;BME280;9752;54.270;12.470;2023-02-28T03:02:50;103519.25;;;-4.51;100.00
19236;BME280;9752;54.270;12.470;2023-02-28T03:07:55;103522.97;;;-4.48;100.00
19236;BME280;9752;54.270;12.470;2023-02-28T03:13:08;103532.69;;;-4.61;100.00
19236;BME280;9752;54.270;12.470;2023-02-28T03:18:21;103524.00;;;-4.73;100.00
19236;BME280;9752;54.270;12.470;2023-02-28T03:23:35;103535.41;;;-4.81;100.00
19236;BME280;9752;54.270;12.470;2023-02-28T03:28:45;103537.31;;;-4.90;100.00
19236;BME280;9752;54.270;12.470;2023-02-28T03:33:53;103533.69;;;-5.01;100.00
19236;BME280;9752;54.270;12.470;2023-02-28T03:39:02;103531.84;;;-5.02;100.00
19236;BME280;9752;54.270;12.470;2023-02-28T03:44:10;103530.81;;;-5.08;100.00
19236;BME280;9752;54.270;12.470;2023-02-28T03:49:17;103538.00;;;-5.06;100.00
19236;BME280;9752;54.270;12.470;2023-02-28T03:54:26;103547.88;;;-5.07;100.00
19236;BME280;9752;54.270;12.470;2023-02-28T03:59:33;103547.34;;;-5.11;100.00
19236;BME280;9752;54.270;12.470;2023-02-28T04:04:35;103559.28;;;-5.00;100.00
19236;BME280;9752;54.270;12.470;2023-02-28T04:09:39;103567.47;;;-4.76;100.00
19236;BME280;9752;54.270;12.470;2023-02-28T04:14:40;103570.09;;;-4.85;100.00
19236;BME280;9752;54.270;12.470;2023-02-28T04:19:43;103578.78;;;-4.74;100.00
19236;BME280;9752;54.270;12.470;2023-02-28T04:24:46;103577.44;;;-4.72;100.00
19236;BME280;9752;54.270;12.470;2023-02-28T04:29:48;103588.31;;;-4.82;100.00
19236;BME280;9752;54.270;12.470;2023-02-28T04:34:50;103581.78;;;-4.86;100.00
19236;BME280;9752;54.270;12.470;2023-02-28T04:39:53;103581.28;;;-5.04;100.00
19236;BME280;9752;54.270;12.470;2023-02-28T04:44:54;103584.97;;;-5.18;100.00
19236;BME280;9752;54.270;12.470;2023-02-28T04:49:56;103580.22;;;-5.26;100.00
19236;BME280;9752;54.270;12.470;2023-02-28T04:54:59;103582.91;;;-5.30;100.00
19236;BME280;9752;54.270;12.470;2023-02-28T05:00:01;103582.28;;;-5.39;100.00
19236;BME280;9752;54.270;12.470;2023-02-28T05:05:06;103586.38;;;-5.30;100.00
19236;BME280;9752;54.270;12.470;2023-02-28T05:10:10;103588.41;;;-5.33;100.00
19236;BME280;9752;54.270;12.470;2023-02-28T05:15:13;103589.22;;;-5.38;100.00
19236;BME280;9752;54.270;12.470;2023-02-28T05:20:16;103600.84;;;-5.44;100.00
19236;BME280;9752;54.270;12.470;2023-02-28T05:25:20;103608.41;;;-5.19;100.00
19236;BME280;9752;54.270;12.470;2023-02-28T05:30:22;103610.09;;;-5.39;100.00
19236;BME280;9752;54.270;12.470;2023-02-28T05:35:25;103597.69;;;-5.53;100.00
19236;BME280;9752;54.270;12.470;2023-02-28T05:40:28;103605.78;;;-5.50;100.00
19236;BME280;9752;54.270;12.470;2023-02-28T05:45:29;103605.56;;;-5.61;100.00
19236;BME280;9752;54.270;12.470;2023-02-28T05:50:31;103605.13;;;-5.83;100.00
19236;BME280;9752;54.270;12.470;2023-02-28T05:55:34;103611.69;;;-5.90;100.00
19236;BME280;9752;54.270;12.470;2023-02-28T06:00:37;103604.06;;;-5.80;100.00
19236;BME280;9752;54.270;12.470;2023-02-28T06:05:39;103607.72;;;-5.68;100.00
19236;BME280;9752;54.270;12.470;2023-02-28T06:10:42;103623.38;;;-5.55;100.00
19236;BME280;9752;54.270;12.470;2023-02-28T06:15:43;103620.03;;;-5.25;100.00
19236;BME280;9752;54.270;12.470;2023-02-28T06:20:52;103627.91;;;-5.33;100.00
19236;BME280;9752;54.270;12.470;2023-02-28T06:25:56;103630.16;;;-5.25;100.00
19236;BME280;9752;54.270;12.470;2023-02-28T06:30:58;103643.03;;;-5.14;100.00
19236;BME280;9752;54.270;12.470;2023-02-28T06:36:00;103639.69;;;-4.93;100.00
19236;BME280;9752;54.270;12.470;2023-02-28T06:41:04;103654.50;;;-4.60;100.00
19236;BME280;9752;54.270;12.470;2023-02-28T06:46:08;103669.88;;;-4.33;100.00
19236;BME280;9752;54.270;12.470;2023-02-28T06:51:12;103673.75;;;-4.20;100.00
19236;BME280;9752;54.270;12.470;2023-02-28T06:56:16;103682.03;;;-4.05;100.00
19236;BME280;9752;54.270;12.470;2023-02-28T07:01:19;103694.09;;;-3.83;100.00
19236;BME280;9752;54.270;12.470;2023-02-28T07:06:21;103705.69;;;-3.59;100.00
19236;BME280;9752;54.270;12.470;2023-02-28T07:11:26;103716.81;;;-3.37;100.00
19236;BME280;9752;54.270;12.470;2023-02-28T07:16:28;103705.97;;;-3.15;100.00
19236;BME280;9752;54.270;12.470;2023-02-28T07:21:30;103713.88;;;-2.87;100.00
19236;BME280;9752;54.270;12.470;2023-02-28T07:26:33;103728.97;;;-2.56;100.00
19236;BME280;9752;54.270;12.470;2023-02-28T07:31:35;103728.69;;;-2.37;100.00
19236;BME280;9752;54.270;12.470;2023-02-28T07:36:37;103739.91;;;-2.19;100.00
19236;BME280;9752;54.270;12.470;2023-02-28T07:41:40;103742.59;;;-1.97;100.00
19236;BME280;9752;54.270;12.470;2023-02-28T07:46:43;103748.09;;;-1.67;100.00
19236;BME280;9752;54.270;12.470;2023-02-28T07:51:45;103753.25;;;-1.55;100.00
19236;BME280;9752;54.270;12.470;2023-02-28T07:56:48;103752.91;;;-1.25;100.00
19236;BME280;9752;54.270;12.470;2023-02-28T08:01:50;103762.22;;;-1.03;100.00
19236;BME280;9752;54.270;12.470;2023-02-28T08:06:52;103756.28;;;-0.69;100.00
19236;BME280;9752;54.270;12.470;2023-02-28T08:11:55;103754.25;;;-0.55;100.00
19236;BME280;9752;54.270;12.470;2023-02-28T08:16:56;103767.94;;;-0.21;100.00
19236;BME280;9752;54.270;12.470;2023-02-28T08:21:58;103763.72;;;-0.03;100.00
19236;BME280;9752;54.270;12.470;2023-02-28T08:27:01;103765.53;;;0.15;100.00
19236;BME280;9752;54.270;12.470;2023-02-28T08:32:03;103759.91;;;0.46;100.00
19236;BME280;9752;54.270;12.470;2023-02-28T08:37:05;103750.94;;;0.77;100.00
19236;BME280;9752;54.270;12.470;2023-02-28T08:42:08;103751.09;;;0.96;100.00
19236;BME280;9752;54.270;12.470;2023-02-28T08:47:10;103751.53;;;1.34;100.00
19236;BME280;9752;54.270;12.470;2023-02-28T08:52:11;103735.06;;;1.62;100.00
19236;BME280;9752;54.270;12.470;2023-02-28T08:57:14;103720.91;;;1.83;100.00
19236;BME280;9752;54.270;12.470;2023-02-28T09:02:16;103704.38;;;2.05;100.00
19236;BME280;9752;54.270;12.470;2023-02-28T09:07:18;103686.22;;;2.27;100.00
19236;BME280;9752;54.270;12.470;2023-02-28T09:12:21;103671.69;;;2.52;100.00
19236;BME280;9752;54.270;12.470;2023-02-28T09:17:23;103652.97;;;2.90;100.00
19236;BME280;9752;54.270;12.470;2023-02-28T09:22:25;103631.22;;;3.25;100.00
19236;BME280;9752;54.270;12.470;2023-02-28T09:27:28;103600.84;;;3.41;100.00
19236;BME280;9752;54.270;12.470;2023-02-28T09:32:30;103562.78;;;3.57;100.00
19236;BME280;9752;54.270;12.470;2023-02-28T09:37:32;103533.16;;;3.79;100.00
19236;BME280;9752;54.270;12.470;2023-02-28T09:42:35;103501.06;;;4.15;100.00
19236;BME280;9752;54.270;12.470;2023-02-28T09:47:39;103461.63;;;4.35;100.00
19236;BME280;9752;54.270;12.470;2023-02-28T09:52:42;103451.44;;;4.49;100.00
19236;BME280;9752;54.270;12.470;2023-02-28T09:57:47;103431.78;;;4.49;100.00
19236;BME280;9752;54.270;12.470;2023-02-28T10:03:02;103406.28;;;4.51;100.00
19236;BME280;9752;54.270;12.470;2023-02-28T10:08:11;103400.19;;;4.71;100.00
19236;BME280;9752;54.270;12.470;2023-02-28T10:13:22;103393.53;;;5.00;100.00
19236;BME280;9752;54.270;12.470;2023-02-28T10:18:28;103383.69;;;5.17;100.00
19236;BME280;9752;54.270;12.470;2023-02-28T10:23:34;103381.75;;;5.43;100.00
19236;BME280;9752;54.270;12.470;2023-02-28T10:28:38;103369.25;;;5.46;100.00
19236;BME280;9752;54.270;12.470;2023-02-28T10:33:40;103369.09;;;5.66;100.00
19236;BME280;9752;54.270;12.470;2023-02-28T10:38:43;103364.88;;;5.81;100.00
19236;BME280;9752;54.270;12.470;2023-02-28T10:43:46;103362.13;;;5.65;100.00
19236;BME280;9752;54.270;12.470;2023-02-28T10:48:59;103377.13;;;5.48;100.00
19236;BME280;9752;54.270;12.470;2023-02-28T10:54:03;103368.53;;;5.55;100.00
19236;BME280;9752;54.270;12.470;2023-02-28T10:59:28;103367.03;;;5.35;100.00
19236;BME280;9752;54.270;12.470;2023-02-28T11:04:36;103358.97;;;5.61;100.00
19236;BME280;9752;54.270;12.470;2023-02-28T11:09:41;103352.72;;;5.66;100.00
19236;BME280;9752;54.270;12.470;2023-02-28T11:14:51;103358.41;;;5.49;100.00
19236;BME280;9752;54.270;12.470;2023-02-28T11:19:55;103351.25;;;5.68;100.00
19236;BME280;9752;54.270;12.470;2023-02-28T11:24:59;103353.63;;;5.45;100.00
19236;BME280;9752;54.270;12.470;2023-02-28T11:30:23;103345.16;;;5.39;100.00
19236;BME280;9752;54.270;12.470;2023-02-28T11:35:29;103341.31;;;5.57;100.00
19236;BME280;9752;54.270;12.470;2023-02-28T11:40:40;103337.44;;;5.75;100.00
19236;BME280;9752;54.270;12.470;2023-02-28T11:45:55;103339.09;;;5.53;100.00
19236;BME280;9752;54.270;12.470;2023-02-28T11:51:08;103313.34;;;5.74;100.00
19236;BME280;9752;54.270;12.470;2023-02-28T11:56:17;103320.91;;;5.80;100.00
19236;BME280;9752;54.270;12.470;2023-02-28T12:01:35;103317.03;;;5.91;100.00
19236;BME280;9752;54.270;12.470;2023-02-28T12:06:44;103309.66;;;6.30;100.00
19236;BME280;9752;54.270;12.470;2023-02-28T12:11:51;103316.84;;;5.89;100.00
19236;BME280;9752;54.270;12.470;2023-02-28T12:17:03;103314.84;;;5.79;100.00
19236;BME280;9752;54.270;12.470;2023-02-28T12:22:27;103313.31;;;5.38;100.00
19236;BME280;9752;54.270;12.470;2023-02-28T12:27:33;103302.69;;;5.57;100.00
19236;BME280;9752;54.270;12.470;2023-02-28T12:32:41;103299.56;;;5.45;100.00
19236;BME280;9752;54.270;12.470;2023-02-28T12:37:49;103294.59;;;5.61;100.00
19236;BME280;9752;54.270;12.470;2023-02-28T12:42:57;103293.69;;;5.60;100.00
19236;BME280;9752;54.270;12.470;2023-02-28T12:48:04;103290.19;;;5.53;100.00
19236;BME280;9752;54.270;12.470;2023-02-28T12:53:11;103292.78;;;5.53;100.00
19236;BME280;9752;54.270;12.470;2023-02-28T12:58:20;103290.00;;;5.58;100.00
19236;BME280;9752;54.270;12.470;2023-02-28T13:03:48;103299.03;;;5.62;100.00
19236;BME280;9752;54.270;12.470;2023-02-28T13:09:05;103303.44;;;5.70;100.00
19236;BME280;9752;54.270;12.470;2023-02-28T13:14:23;103308.03;;;5.58;100.00
19236;BME280;9752;54.270;12.470;2023-02-28T13:19:29;103307.84;;;5.64;100.00
19236;BME280;9752;54.270;12.470;2023-02-28T13:24:43;103299.38;;;5.65;100.00
19236;BME280;9752;54.270;12.470;2023-02-28T13:29:46;103300.13;;;5.71;100.00
19236;BME280;9752;54.270;12.470;2023-02-28T13:35:15;103303.59;;;5.50;100.00
19236;BME280;9752;54.270;12.470;2023-02-28T13:40:35;103300.28;;;5.51;100.00
19236;BME280;9752;54.270;12.470;2023-02-28T13:45:38;103300.81;;;5.20;100.00
19236;BME280;9752;54.270;12.470;2023-02-28T13:50:42;103285.22;;;5.25;100.00
19236;BME280;9752;54.270;12.470;2023-02-28T13:55:46;103279.50;;;5.28;100.00
19236;BME280;9752;54.270;12.470;2023-02-28T14:01:11;103265.72;;;5.27;100.00
19236;BME280;9752;54.270;12.470;2023-02-28T14:06:23;103252.50;;;5.39;100.00
19236;BME280;9752;54.270;12.470;2023-02-28T14:11:31;103257.44;;;5.30;100.00
19236;BME280;9752;54.270;12.470;2023-02-28T14:16:39;103243.47;;;5.21;100.00
19236;BME280;9752;54.270;12.470;2023-02-28T14:21:58;103237.94;;;5.18;100.00
19236;BME280;9752;54.270;12.470;2023-02-28T14:27:13;103240.50;;;5.18;100.00
19236;BME280;9752;54.270;12.470;2023-02-28T14:32:25;103232.63;;;5.23;100.00
19236;BME280;9752;54.270;12.470;2023-02-28T14:37:33;103218.84;;;5.08;100.00
19236;BME280;9752;54.270;12.470;2023-02-28T14:42:38;103220.50;;;5.22;100.00
19236;BME280;9752;54.270;12.470;2023-02-28T14:47:44;103223.78;;;5.07;100.00
19236;BME280;9752;54.270;12.470;2023-02-28T14:52:47;103229.84;;;5.07;100.00
19236;BME280;9752;54.270;12.470;2023-02-28T14:57:51;103219.34;;;4.99;100.00
19236;BME280;9752;54.270;12.470;2023-02-28T15:02:54;103229.63;;;4.99;100.00
19236;BME280;9752;54.270;12.470;2023-02-28T15:08:09;103225.81;;;4.95;100.00
19236;BME280;9752;54.270;12.470;2023-02-28T15:13:13;103218.97;;;4.81;100.00
19236;BME280;9752;54.270;12.470;2023-02-28T15:18:22;103232.38;;;4.79;100.00
19236;BME280;9752;54.270;12.470;2023-02-28T15:23:26;103232.31;;;4.64;100.00
19236;BME280;9752;54.270;12.470;2023-02-28T15:28:28;103230.84;;;4.59;100.00
19236;BME280;9752;54.270;12.470;2023-02-28T15:33:32;103225.31;;;4.56;100.00
19236;BME280;9752;54.270;12.470;2023-02-28T15:38:36;103215.75;;;4.48;100.00
19236;BME280;9752;54.270;12.470;2023-02-28T15:43:38;103206.50;;;5.06;100.00
19236;BME280;9752;54.270;12.470;2023-02-28T15:48:44;103191.56;;;7.32;100.00
19236;BME280;9752;54.270;12.470;2023-02-28T15:53:51;103192.56;;;7.41;100.00
19236;BME280;9752;54.270;12.470;2023-02-28T15:58:54;103203.13;;;7.75;100.00
19236;BME280;9752;54.270;12.470;2023-02-28T16:03:59;103193.72;;;8.23;100.00
19236;BME280;9752;54.270;12.470;2023-02-28T16:09:03;103196.59;;;7.62;100.00
19236;BME280;9752;54.270;12.470;2023-02-28T16:14:05;103206.94;;;6.25;100.00
19236;BME280;9752;54.270;12.470;2023-02-28T16:19:07;103207.97;;;4.89;100.00
19236;BME280;9752;54.270;12.470;2023-02-28T16:24:11;103212.94;;;3.98;100.00
19236;BME280;9752;54.270;12.470;2023-02-28T16:29:14;103215.44;;;3.36;100.00
19236;BME280;9752;54.270;12.470;2023-02-28T16:34:18;103217.56;;;3.06;100.00
19236;BME280;9752;54.270;12.470;2023-02-28T16:39:21;103222.66;;;2.86;100.00
19236;BME280;9752;54.270;12.470;2023-02-28T16:44:26;103219.69;;;2.50;100.00
19236;BME280;9752;54.270;12.470;2023-02-28T16:49:29;103221.19;;;2.22;100.00
19236;BME280;9752;54.270;12.470;2023-02-28T16:54:32;103231.00;;;2.06;100.00
19236;BME280;9752;54.270;12.470;2023-02-28T16:59:33;103229.47;;;1.88;100.00
19236;BME280;9752;54.270;12.470;2023-02-28T17:04:35;103235.28;;;1.62;100.00
19236;BME280;9752;54.270;12.470;2023-02-28T17:09:38;103240.59;;;1.19;100.00
19236;BME280;9752;54.270;12.470;2023-02-28T17:14:40;103246.16;;;1.04;100.00
19236;BME280;9752;54.270;12.470;2023-02-28T17:19:42;103252.66;;;0.70;100.00
19236;BME280;9752;54.270;12.470;2023-02-28T17:24:45;103252.78;;;0.41;100.00
19236;BME280;9752;54.270;12.470;2023-02-28T17:29:47;103254.69;;;0.12;100.00
19236;BME280;9752;54.270;12.470;2023-02-28T17:34:48;103263.44;;;-0.05;100.00
19236;BME280;9752;54.270;12.470;2023-02-28T17:39:52;103260.38;;;-0.26;100.00
19236;BME280;9752;54.270;12.470;2023-02-28T17:44:53;103275.59;;;-0.45;100.00
19236;BME280;9752;54.270;12.470;2023-02-28T17:49:55;103278.13;;;-0.45;100.00
19236;BME280;9752;54.270;12.470;2023-02-28T17:54:58;103283.72;;;-0.47;100.00
19236;BME280;9752;54.270;12.470;2023-02-28T18:00:00;103291.41;;;-0.53;100.00
19236;BME280;9752;54.270;12.470;2023-02-28T18:05:11;103290.56;;;-0.70;100.00
19236;BME280;9752;54.270;12.470;2023-02-28T18:15:21;103302.63;;;-1.22;100.00
19236;BME280;9752;54.270;12.470;2023-02-28T18:20:22;103297.31;;;-1.17;100.00
19236;BME280;9752;54.270;12.470;2023-02-28T18:25:26;103292.69;;;-1.20;100.00
19236;BME280;9752;54.270;12.470;2023-02-28T18:30:29;103294.63;;;-1.42;100.00
19236;BME280;9752;54.270;12.470;2023-02-28T18:35:31;103296.06;;;-1.61;100.00
19236;BME280;9752;54.270;12.470;2023-02-28T18:40:38;103296.56;;;-1.86;100.00
19236;BME280;9752;54.270;12.470;2023-02-28T18:45:41;103288.25;;;-1.96;100.00
19236;BME280;9752;54.270;12.470;2023-02-28T18:50:43;103292.19;;;-2.09;100.00
19236;BME280;9752;54.270;12.470;2023-02-28T18:55:46;103274.84;;;-2.12;100.00
19236;BME280;9752;54.270;12.470;2023-02-28T19:00:47;103279.47;;;-2.15;100.00
19236;BME280;9752;54.270;12.470;2023-02-28T19:05:53;103278.06;;;-2.24;100.00
19236;BME280;9752;54.270;12.470;2023-02-28T19:10:56;103272.06;;;-2.36;100.00
19236;BME280;9752;54.270;12.470;2023-02-28T19:16:00;103285.00;;;-2.46;100.00
19236;BME280;9752;54.270;12.470;2023-02-28T19:21:02;103288.03;;;-2.43;100.00
19236;BME280;9752;54.270;12.470;2023-02-28T19:26:06;103279.47;;;-2.38;100.00
19236;BME280;9752;54.270;12.470;2023-02-28T19:31:11;103287.78;;;-2.39;100.00
19236;BME280;9752;54.270;12.470;2023-02-28T19:36:14;103282.72;;;-2.44;100.00
19236;BME280;9752;54.270;12.470;2023-02-28T19:41:18;103283.38;;;-2.45;100.00
19236;BME280;9752;54.270;12.470;2023-02-28T19:46:20;103286.38;;;-2.53;100.00
19236;BME280;9752;54.270;12.470;2023-02-28T19:51:21;103305.56;;;-2.50;100.00
19236;BME280;9752;54.270;12.470;2023-02-28T19:56:24;103313.19;;;-2.56;100.00
19236;BME280;9752;54.270;12.470;2023-02-28T20:01:26;103322.19;;;-2.52;100.00
19236;BME280;9752;54.270;12.470;2023-02-28T20:06:30;103320.56;;;-2.57;100.00
19236;BME280;9752;54.270;12.470;2023-02-28T20:11:33;103341.81;;;-2.57;100.00
19236;BME280;9752;54.270;12.470;2023-02-28T20:16:35;103353.81;;;-2.61;100.00
19236;BME280;9752;54.270;12.470;2023-02-28T20:21:37;103353.53;;;-2.80;100.00
19236;BME280;9752;54.270;12.470;2023-02-28T20:26:41;103347.69;;;-2.96;100.00
19236;BME280;9752;54.270;12.470;2023-02-28T20:31:43;103353.66;;;-3.01;100.00
19236;BME280;9752;54.270;12.470;2023-02-28T20:36:45;103368.44;;;-2.98;100.00
19236;BME280;9752;54.270;12.470;2023-02-28T20:41:48;103371.00;;;-2.92;100.00
19236;BME280;9752;54.270;12.470;2023-02-28T20:46:50;103379.78;;;-2.90;100.00
19236;BME280;9752;54.270;12.470;2023-02-28T20:51:52;103387.69;;;-2.78;100.00
19236;BME280;9752;54.270;12.470;2023-02-28T20:56:55;103390.19;;;-2.89;100.00
19236;BME280;9752;54.270;12.470;2023-02-28T21:01:57;103394.47;;;-2.61;100.00
19236;BME280;9752;54.270;12.470;2023-02-28T21:06:58;103401.47;;;-2.38;100.00
19236;BME280;9752;54.270;12.470;2023-02-28T21:12:01;103409.56;;;-2.40;100.00
19236;BME280;9752;54.270;12.470;2023-02-28T21:17:03;103416.00;;;-2.48;100.00
19236;BME280;9752;54.270;12.470;2023-02-28T21:22:07;103428.22;;;-2.51;100.00
19236;BME280;9752;54.270;12.470;2023-02-28T21:27:10;103422.19;;;-2.57;100.00
19236;BME280;9752;54.270;12.470;2023-02-28T21:32:12;103429.59;;;-2.53;100.00
19236;BME280;9752;54.270;12.470;2023-02-28T21:37:14;103427.66;;;-2.77;100.00
19236;BME280;9752;54.270;12.470;2023-02-28T21:42:17;103431.69;;;-3.05;100.00
19236;BME280;9752;54.270;12.470;2023-02-28T21:47:19;103427.63;;;-3.26;100.00
19236;BME280;9752;54.270;12.470;2023-02-28T21:52:20;103434.22;;;-3.32;100.00
19236;BME280;9752;54.270;12.470;2023-02-28T21:57:24;103437.34;;;-3.50;100.00
19236;BME280;9752;54.270;12.470;2023-02-28T22:02:25;103442.56;;;-3.33;100.00
19236;BME280;9752;54.270;12.470;2023-02-28T22:07:27;103449.47;;;-3.38;100.00
19236;BME280;9752;54.270;12.470;2023-02-28T22:12:30;103444.25;;;-3.55;100.00
19236;BME280;9752;54.270;12.470;2023-02-28T22:17:32;103440.72;;;-3.61;100.00
19236;BME280;9752;54.270;12.470;2023-02-28T22:22:34;103450.13;;;-3.65;100.00
19236;BME280;9752;54.270;12.470;2023-02-28T22:27:37;103451.47;;;-3.73;100.00
19236;BME280;9752;54.270;12.470;2023-02-28T22:32:38;103445.88;;;-3.76;100.00
19236;BME280;9752;54.270;12.470;2023-02-28T22:37:40;103453.19;;;-3.62;100.00
19236;BME280;9752;54.270;12.470;2023-02-28T22:42:43;103454.81;;;-3.57;100.00
19236;BME280;9752;54.270;12.470;2023-02-28T22:47:46;103464.03;;;-3.58;100.00
19236;BME280;9752;54.270;12.470;2023-02-28T22:52:48;103457.00;;;-3.70;100.00
19236;BME280;9752;54.270;12.470;2023-02-28T22:57:52;103471.03;;;-3.72;100.00
19236;BME280;9752;54.270;12.470;2023-02-28T23:02:54;103470.28;;;-3.82;100.00
19236;BME280;9752;54.270;12.470;2023-02-28T23:07:56;103466.94;;;-3.93;100.00
19236;BME280;9752;54.270;12.470;2023-02-28T23:12:59;103460.25;;;-3.92;100.00
19236;BME280;9752;54.270;12.470;2023-02-28T23:18:00;103462.66;;;-3.82;100.00
19236;BME280;9752;54.270;12.470;2023-02-28T23:23:02;103481.59;;;-3.54;100.00
19236;BME280;9752;54.270;12.470;2023-02-28T23:28:06;103485.09;;;-3.47;100.00
19236;BME280;9752;54.270;12.470;2023-02-28T23:33:09;103481.13;;;-3.78;100.00
19236;BME280;9752;54.270;12.470;2023-02-28T23:38:11;103487.66;;;-3.95;100.00
19236;BME280;9752;54.270;12.470;2023-02-28T23:43:14;103483.22;;;-4.02;100.00
19236;BME280;9752;54.270;12.470;2023-02-28T23:48:15;103478.81;;;-4.03;100.00
19236;BME280;9752;54.270;12.470;2023-02-28T23:53:18;103470.94;;;-4.04;100.00
19236;BME280;9752;54.270;12.470;2023-02-28T23:58:21;103471.47;;;-4.01;100.00
